createdAt,value
2023-01-11T00:01:51.431Z,98490.34
2023-01-11T00:04:18.530Z,98493.91
2023-01-11T00:06:45.306Z,98478.88
2023-01-11T00:09:12.198Z,98489.84
2023-01-11T00:11:38.723Z,98479.44
2023-01-11T00:14:05.313Z,98479.34
2023-01-11T00:16:31.880Z,98479.19
2023-01-11T00:18:58.409Z,98468.69
2023-01-11T00:21:26.819Z,98472.59
2023-01-11T00:23:53.431Z,98481.28
2023-01-11T00:26:19.946Z,98477.19
2023-01-11T00:28:48.426Z,98467.59
2023-01-11T00:31:15.151Z,98469.03
2023-01-11T00:33:41.743Z,98460.38
2023-01-11T00:36:08.487Z,98459.47
2023-01-11T00:38:44.162Z,98457.75
2023-01-11T00:41:29.564Z,98452.38
2023-01-11T00:44:14.805Z,98449.13
2023-01-11T00:47:00.148Z,98442.25
2023-01-11T00:49:26.762Z,98434.19
2023-01-11T00:51:53.298Z,98432.56
2023-01-11T00:54:20.370Z,98431.72
2023-01-11T00:56:47.341Z,98425.75
2023-01-11T00:59:14.076Z,98423.38
2023-01-11T01:01:40.680Z,98424.56
2023-01-11T01:04:07.291Z,98427.28
2023-01-11T01:06:33.880Z,98424.09
2023-01-11T01:09:00.457Z,98418.81
2023-01-11T01:11:33.100Z,98413.78
2023-01-11T01:14:19.837Z,98411.84
2023-01-11T01:16:47.389Z,98419.78
2023-01-11T01:19:14.029Z,98406.72
2023-01-11T01:21:40.642Z,98404.13
2023-01-11T01:24:07.268Z,98407.75
2023-01-11T01:26:33.782Z,98404.19
2023-01-11T01:29:01.025Z,98409.63
2023-01-11T01:31:27.791Z,98406.78
2023-01-11T01:33:54.377Z,98405.84
2023-01-11T01:36:21.013Z,98412.38
2023-01-11T01:38:47.786Z,98413.78
2023-01-11T01:41:14.525Z,98414.91
2023-01-11T01:43:47.577Z,98417.84
2023-01-11T01:46:14.708Z,98409.53
2023-01-11T01:48:41.387Z,98411.78
2023-01-11T01:51:07.951Z,98398.69
2023-01-11T01:53:38.333Z,98400.63
2023-01-11T01:56:06.411Z,98392.09
2023-01-11T01:58:38.268Z,98392.78
2023-01-11T02:01:23.605Z,98389.63
2023-01-11T02:03:50.175Z,98376.97
2023-01-11T02:06:16.713Z,98382.66
2023-01-11T02:08:43.825Z,98374.06
2023-01-11T02:11:29.978Z,98372.66
2023-01-11T02:14:17.164Z,98372.13
2023-01-11T02:16:43.805Z,98364.91
2023-01-11T02:19:10.846Z,98355.50
2023-01-11T02:21:40.567Z,98346.25
2023-01-11T02:24:09.927Z,98354.56
2023-01-11T02:26:42.046Z,98350.81
2023-01-11T02:29:08.582Z,98352.09
2023-01-11T02:31:37.989Z,98344.44
2023-01-11T02:34:04.568Z,98331.56
2023-01-11T02:36:49.889Z,98332.28
2023-01-11T02:39:33.527Z,98330.63
2023-01-11T02:42:30.990Z,98325.44
2023-01-11T02:45:17.331Z,98325.47
2023-01-11T02:48:10.204Z,98335.78
2023-01-11T02:50:45.189Z,98334.13
2023-01-11T02:53:20.733Z,98329.41
2023-01-11T02:55:48.762Z,98327.72
2023-01-11T02:58:15.577Z,98324.81
2023-01-11T03:00:42.252Z,98322.09
2023-01-11T03:03:13.693Z,98319.31
2023-01-11T03:05:42.532Z,98314.72
2023-01-11T03:08:13.930Z,98314.44
2023-01-11T03:10:40.957Z,98324.69
2023-01-11T03:13:16.556Z,98320.00
2023-01-11T03:15:53.914Z,98318.63
2023-01-11T03:18:39.581Z,98329.84
2023-01-11T03:21:08.894Z,98319.72
2023-01-11T03:23:53.785Z,98320.94
2023-01-11T03:26:25.181Z,98332.06
2023-01-11T03:28:51.946Z,98321.25
2023-01-11T03:31:27.729Z,98314.44
2023-01-11T03:34:00.547Z,98311.81
2023-01-11T03:36:28.566Z,98309.06
2023-01-11T03:38:56.438Z,98301.56
2023-01-11T03:41:24.781Z,98301.81
2023-01-11T03:43:52.584Z,98304.28
2023-01-11T03:46:21.088Z,98305.94
2023-01-11T03:48:49.383Z,98301.78
2023-01-11T03:51:17.386Z,98292.34
2023-01-11T03:53:44.786Z,98297.63
2023-01-11T03:56:11.876Z,98277.06
2023-01-11T03:58:38.547Z,98297.31
2023-01-11T04:01:05.647Z,98288.72
2023-01-11T04:03:32.211Z,98293.22
2023-01-11T04:06:00.177Z,98289.31
2023-01-11T04:08:26.827Z,98279.47
2023-01-11T04:10:54.053Z,98275.44
2023-01-11T04:13:20.696Z,98272.56
2023-01-11T04:15:47.314Z,98268.50
2023-01-11T04:18:13.837Z,98264.66
2023-01-11T04:20:40.524Z,98262.97
2023-01-11T04:23:07.908Z,98267.72
2023-01-11T04:25:34.489Z,98260.91
2023-01-11T04:28:01.047Z,98255.88
2023-01-11T04:30:27.584Z,98251.91
2023-01-11T04:32:54.144Z,98248.94
2023-01-11T04:35:20.752Z,98254.13
2023-01-11T04:37:48.227Z,98255.53
2023-01-11T04:40:14.883Z,98248.84
2023-01-11T04:42:41.457Z,98256.59
2023-01-11T04:45:08.317Z,98252.13
2023-01-11T04:47:35.335Z,98253.13
2023-01-11T04:50:01.983Z,98252.00
2023-01-11T04:52:31.024Z,98247.44
2023-01-11T04:54:57.572Z,98240.78
2023-01-11T04:57:25.350Z,98241.41
2023-01-11T04:59:51.874Z,98226.31
2023-01-11T05:02:18.539Z,98231.16
2023-01-11T05:04:45.237Z,98247.09
2023-01-11T05:07:11.891Z,98244.34
2023-01-11T05:09:38.479Z,98249.44
2023-01-11T05:12:05.050Z,98249.06
2023-01-11T05:14:31.581Z,98248.78
2023-01-11T05:16:58.976Z,98255.72
2023-01-11T05:19:25.589Z,98247.38
2023-01-11T05:21:52.238Z,98236.44
2023-01-11T05:24:18.784Z,98234.22
2023-01-11T05:26:48.502Z,98222.41
2023-01-11T05:29:16.518Z,98217.59
2023-01-11T05:31:43.184Z,98219.53
2023-01-11T05:34:10.387Z,98219.25
2023-01-11T05:36:36.928Z,98215.09
2023-01-11T05:39:04.363Z,98213.16
2023-01-11T05:41:30.892Z,98226.47
2023-01-11T05:44:16.233Z,98227.97
2023-01-11T05:46:43.248Z,98239.75
2023-01-11T05:49:10.236Z,98231.31
2023-01-11T05:51:38.229Z,98222.03
2023-01-11T05:54:05.419Z,98221.91
2023-01-11T05:56:31.962Z,98219.53
2023-01-11T05:58:58.502Z,98218.28
2023-01-11T06:01:25.672Z,98212.50
2023-01-11T06:03:52.465Z,98201.13
2023-01-11T06:06:20.558Z,98199.47
2023-01-11T06:08:47.108Z,98200.69
2023-01-11T06:11:14.887Z,98193.09
2023-01-11T06:13:41.565Z,98191.44
2023-01-11T06:16:12.360Z,98183.25
2023-01-11T06:18:39.835Z,98176.75
2023-01-11T06:21:06.395Z,98170.75
2023-01-11T06:23:33.784Z,98168.81
2023-01-11T06:26:01.084Z,98169.22
2023-01-11T06:28:27.648Z,98172.66
2023-01-11T06:30:54.598Z,98178.50
2023-01-11T06:33:21.737Z,98166.03
2023-01-11T06:35:48.274Z,98165.59
2023-01-11T06:38:15.314Z,98169.91
2023-01-11T06:40:41.855Z,98164.94
2023-01-11T06:43:08.812Z,98163.38
2023-01-11T06:45:38.289Z,98161.03
2023-01-11T06:48:05.448Z,98174.59
2023-01-11T06:50:32.072Z,98163.25
2023-01-11T06:52:59.404Z,98172.53
2023-01-11T06:55:26.868Z,98167.09
2023-01-11T06:57:53.388Z,98167.69
2023-01-11T07:00:20.556Z,98174.59
2023-01-11T07:02:47.574Z,98172.94
2023-01-11T07:05:14.326Z,98172.25
2023-01-11T07:07:41.270Z,98168.78
2023-01-11T07:12:36.450Z,98166.16
2023-01-11T07:15:03.732Z,98167.69
2023-01-11T07:17:30.305Z,98170.03
2023-01-11T07:19:56.881Z,98158.28
2023-01-11T07:22:23.780Z,98162.81
2023-01-11T07:24:50.915Z,98157.16
2023-01-11T07:27:17.741Z,98150.38
2023-01-11T07:29:44.380Z,98160.88
2023-01-11T07:32:10.901Z,98160.72
2023-01-11T07:34:37.874Z,98156.06
2023-01-11T07:37:04.842Z,98155.41
2023-01-11T07:39:42.959Z,98160.78
2023-01-11T07:42:29.863Z,98156.03
2023-01-11T07:44:56.453Z,98160.59
2023-01-11T07:47:23.237Z,98166.31
2023-01-11T07:49:49.881Z,98162.16
2023-01-11T07:52:16.508Z,98166.53
2023-01-11T07:54:43.053Z,98161.78
2023-01-11T07:57:09.901Z,98157.72
2023-01-11T07:59:36.578Z,98162.06
2023-01-11T08:02:03.101Z,98167.13
2023-01-11T08:04:29.921Z,98161.88
2023-01-11T08:06:58.953Z,98162.25
2023-01-11T08:09:25.643Z,98166.31
2023-01-11T08:12:11.061Z,98161.50
2023-01-11T08:14:39.337Z,98161.41
2023-01-11T08:17:09.518Z,98169.66
2023-01-11T08:19:36.221Z,98167.31
2023-01-11T08:22:02.841Z,98168.97
2023-01-11T08:24:29.448Z,98170.66
2023-01-11T08:26:56.028Z,98170.03
2023-01-11T08:29:22.867Z,98174.78
2023-01-11T08:31:49.556Z,98175.84
2023-01-11T08:34:16.097Z,98166.50
2023-01-11T08:36:42.680Z,98169.06
2023-01-11T08:39:09.390Z,98167.91
2023-01-11T08:41:35.961Z,98168.09
2023-01-11T08:44:02.549Z,98171.31
2023-01-11T08:46:29.109Z,98157.22
2023-01-11T08:48:55.661Z,98148.88
2023-01-11T08:51:22.234Z,98143.50
2023-01-11T08:53:48.787Z,98156.09
2023-01-11T08:56:15.843Z,98158.13
2023-01-11T08:58:42.479Z,98156.31
2023-01-11T09:01:09.752Z,98161.50
2023-01-11T09:03:36.357Z,98162.78
2023-01-11T09:06:02.956Z,98165.16
2023-01-11T09:08:29.923Z,98164.00
2023-01-11T09:10:56.799Z,98155.56
2023-01-11T09:13:23.387Z,98160.63
2023-01-11T09:15:50.021Z,98160.31
2023-01-11T09:18:16.609Z,98151.84
2023-01-11T09:20:43.521Z,98159.84
2023-01-11T09:23:10.093Z,98152.81
2023-01-11T09:25:36.661Z,98152.59
2023-01-11T09:28:04.158Z,98152.75
2023-01-11T09:30:31.340Z,98154.59
2023-01-11T09:32:58.385Z,98152.50
2023-01-11T09:35:25.335Z,98154.91
2023-01-11T09:37:53.985Z,98149.09
2023-01-11T09:40:22.004Z,98154.22
2023-01-11T09:42:49.230Z,98148.41
2023-01-11T09:45:20.411Z,98153.13
2023-01-11T09:47:47.080Z,98157.00
2023-01-11T09:50:15.681Z,98145.31
2023-01-11T09:52:43.886Z,98155.69
2023-01-11T09:55:20.233Z,98144.25
2023-01-11T09:57:47.345Z,98141.66
2023-01-11T10:00:20.760Z,98152.66
2023-01-11T10:03:06.173Z,98143.69
2023-01-11T10:05:34.843Z,98150.34
2023-01-11T10:18:31.765Z,98143.44
2023-01-11T10:18:32.764Z,98137.41
2023-01-11T10:20:01.631Z,98142.38
2023-01-11T10:22:39.768Z,98142.56
2023-01-11T10:25:18.985Z,98145.72
2023-01-11T10:28:00.659Z,98141.41
2023-01-11T10:30:49.646Z,98142.88
2023-01-11T10:33:46.665Z,98147.63
2023-01-11T10:36:55.690Z,98143.09
2023-01-11T10:39:55.777Z,98139.34
2023-01-11T10:42:26.443Z,98134.56
2023-01-11T10:45:03.003Z,98131.97
2023-01-11T10:47:30.947Z,98134.91
2023-01-11T10:50:06.071Z,98131.22
2023-01-11T10:52:41.678Z,98130.06
2023-01-11T10:55:13.093Z,98135.72
2023-01-11T10:57:59.280Z,98134.78
2023-01-11T11:00:37.997Z,98137.66
2023-01-11T11:03:08.647Z,98135.59
2023-01-11T11:05:42.532Z,98132.13
2023-01-11T11:08:30.157Z,98134.22
2023-01-11T11:10:59.576Z,98124.38
2023-01-11T11:13:26.084Z,98120.88
2023-01-11T11:15:57.312Z,98122.13
2023-01-11T11:18:24.135Z,98119.59
2023-01-11T11:20:50.812Z,98121.72
2023-01-11T11:23:18.316Z,98110.44
2023-01-11T11:25:49.249Z,98123.81
2023-01-11T11:28:28.202Z,98114.63
2023-01-11T11:30:55.790Z,98112.81
2023-01-11T11:33:35.966Z,98108.31
2023-01-11T11:36:06.701Z,98108.47
2023-01-11T11:38:37.486Z,98104.28
2023-01-11T11:41:11.604Z,98098.97
2023-01-11T11:43:39.794Z,98101.00
2023-01-11T11:46:19.422Z,98092.78
2023-01-11T11:49:04.957Z,98095.44
2023-01-11T11:51:31.564Z,98092.59
2023-01-11T11:53:58.167Z,98091.91
2023-01-11T11:56:30.785Z,98092.78
2023-01-11T11:58:57.838Z,98090.13
2023-01-11T12:01:39.658Z,98100.47
2023-01-11T12:04:12.439Z,98098.69
2023-01-11T12:06:38.992Z,98089.44
2023-01-11T12:09:05.561Z,98088.91
2023-01-11T12:11:34.301Z,98092.41
2023-01-11T12:14:06.864Z,98088.28
2023-01-11T12:16:35.416Z,98085.09
2023-01-11T12:19:02.028Z,98083.63
2023-01-11T12:21:30.361Z,98081.28
2023-01-11T12:24:10.690Z,98081.03
2023-01-11T12:26:46.474Z,98082.75
2023-01-11T12:29:25.472Z,98080.81
2023-01-11T12:31:55.265Z,98084.44
2023-01-11T12:34:22.020Z,98079.47
2023-01-11T12:36:52.193Z,98072.22
2023-01-11T12:39:25.732Z,98075.41
2023-01-11T12:42:11.222Z,98073.56
2023-01-11T12:44:41.933Z,98079.22
2023-01-11T12:47:16.200Z,98076.38
2023-01-11T12:49:59.208Z,98074.41
2023-01-11T12:52:29.397Z,98083.34
2023-01-11T12:55:02.333Z,98084.53
2023-01-11T12:57:31.735Z,98077.41
2023-01-11T13:00:10.906Z,98082.69
2023-01-11T13:02:49.917Z,98097.06
2023-01-11T13:05:35.323Z,98092.59
2023-01-11T13:08:04.911Z,98090.28
2023-01-11T13:10:40.452Z,98105.13
2023-01-11T13:13:09.282Z,98102.66
2023-01-11T13:15:43.347Z,98105.63
2023-01-11T13:18:15.973Z,98111.56
2023-01-11T13:21:00.593Z,98108.31
2023-01-11T13:23:33.275Z,98113.94
2023-01-11T13:26:01.459Z,98105.19
2023-01-11T13:28:30.066Z,98095.09
2023-01-11T13:30:59.272Z,98105.00
2023-01-11T13:33:27.054Z,98112.13
2023-01-11T13:35:55.772Z,98109.00
2023-01-11T13:38:27.996Z,98109.28
2023-01-11T13:40:55.595Z,98107.50
2023-01-11T13:43:37.624Z,98118.59
2023-01-11T13:46:19.805Z,98131.28
2023-01-11T13:48:55.169Z,98127.78
2023-01-11T13:51:25.016Z,98133.09
2023-01-11T13:53:53.548Z,98147.59
2023-01-11T13:56:43.524Z,98154.06
2023-01-11T13:59:22.567Z,98155.19
2023-01-11T14:01:50.839Z,98157.75
2023-01-11T14:04:39.848Z,98171.88
2023-01-11T14:07:22.211Z,98171.53
2023-01-11T14:10:01.385Z,98181.56
2023-01-11T14:12:31.310Z,98176.66
2023-01-11T14:15:11.287Z,98175.63
2023-01-11T14:17:56.963Z,98183.50
2023-01-11T14:20:30.548Z,98190.75
2023-01-11T14:22:57.090Z,98202.03
2023-01-11T14:25:28.152Z,98200.38
2023-01-11T14:28:03.813Z,98212.75
2023-01-11T14:30:41.126Z,98215.41
2023-01-11T14:33:12.681Z,98213.38
2023-01-11T14:35:58.333Z,98216.44
2023-01-11T14:38:28.131Z,98223.53
2023-01-11T14:41:13.506Z,98229.88
2023-01-11T14:43:59.460Z,98236.75
2023-01-11T14:46:45.310Z,98237.25
2023-01-11T14:49:30.742Z,98240.66
2023-01-11T14:52:01.746Z,98243.38
2023-01-11T14:54:29.226Z,98247.19
2023-01-11T14:56:56.530Z,98250.72
2023-01-11T14:59:26.278Z,98255.69
2023-01-11T15:02:05.116Z,98245.44
2023-01-11T15:04:35.514Z,98262.03
2023-01-11T15:07:02.329Z,98261.16
2023-01-11T15:09:48.470Z,98268.38
2023-01-11T15:12:15.584Z,98263.34
2023-01-11T15:14:49.551Z,98269.22
2023-01-11T15:17:35.868Z,98273.44
2023-01-11T15:20:09.427Z,98279.56
2023-01-11T15:22:36.220Z,98275.41
2023-01-11T15:25:21.849Z,98280.38
2023-01-11T15:27:48.605Z,98283.91
2023-01-11T15:30:35.133Z,98288.81
2023-01-11T15:33:17.399Z,98288.97
2023-01-11T15:35:56.104Z,98286.94
2023-01-11T15:38:42.655Z,98310.00
2023-01-11T15:41:29.786Z,98307.88
2023-01-11T15:43:59.355Z,98319.53
2023-01-11T15:46:44.539Z,98313.41
2023-01-11T15:49:29.940Z,98317.38
2023-01-11T15:52:15.438Z,98327.16
2023-01-11T15:55:00.577Z,98330.97
2023-01-11T15:57:29.934Z,98333.94
2023-01-11T16:00:15.079Z,98342.97
2023-01-11T16:03:08.992Z,98342.50
2023-01-11T16:05:39.850Z,98350.63
2023-01-11T16:08:06.678Z,98353.28
2023-01-11T16:10:53.886Z,98358.25
2023-01-11T16:13:29.776Z,98361.41
2023-01-11T16:16:08.140Z,98369.41
2023-01-11T16:18:35.550Z,98378.53
2023-01-11T16:21:06.470Z,98391.53
2023-01-11T16:23:33.183Z,98394.84
2023-01-11T16:26:02.922Z,98394.00
2023-01-11T16:28:29.600Z,98392.84
2023-01-11T16:31:00.158Z,98398.44
2023-01-11T16:33:27.541Z,98408.44
2023-01-11T16:36:23.798Z,98412.28
2023-01-11T16:39:16.421Z,98424.28
2023-01-11T16:41:59.092Z,98426.91
2023-01-11T16:44:33.451Z,98436.09
2023-01-11T16:47:13.564Z,98435.22
2023-01-11T16:49:42.428Z,98438.47
2023-01-11T16:52:29.294Z,98437.41
2023-01-11T16:54:56.438Z,98447.38
2023-01-11T16:57:23.663Z,98455.41
2023-01-11T17:00:00.777Z,98457.50
2023-01-11T17:02:29.198Z,98453.75
2023-01-11T17:04:55.777Z,98467.94
2023-01-11T17:07:22.462Z,98466.84
2023-01-11T17:09:49.096Z,98460.69
2023-01-11T17:12:16.342Z,98467.38
2023-01-11T17:15:01.660Z,98472.09
2023-01-11T17:17:29.398Z,98481.25
2023-01-11T17:19:59.337Z,98497.38
2023-01-11T17:22:29.730Z,98508.19
2023-01-11T17:25:00.415Z,98498.59
2023-01-11T17:27:35.653Z,98509.56
2023-01-11T17:30:03.025Z,98500.78
2023-01-11T17:32:34.425Z,98520.41
2023-01-11T17:35:04.367Z,98522.63
2023-01-11T17:37:30.967Z,98519.84
2023-01-11T17:39:57.604Z,98534.13
2023-01-11T17:42:44.968Z,98538.59
2023-01-11T17:45:22.266Z,98558.16
2023-01-11T17:47:52.919Z,98562.34
2023-01-11T17:50:29.700Z,98570.66
2023-01-11T17:53:05.906Z,98557.22
2023-01-11T17:55:41.605Z,98558.44
2023-01-11T17:58:17.956Z,98565.59
2023-01-11T18:00:47.286Z,98570.81
2023-01-11T18:03:15.818Z,98572.59
2023-01-11T18:05:42.804Z,98576.03
2023-01-11T18:08:17.170Z,98578.03
2023-01-11T18:10:52.602Z,98598.69
2023-01-11T18:13:25.449Z,98578.16
2023-01-11T18:15:52.020Z,98578.25
2023-01-11T18:18:38.137Z,98577.72
2023-01-11T18:21:24.768Z,98573.03
2023-01-11T18:24:23.848Z,98584.16
2023-01-11T18:27:05.203Z,98579.09
2023-01-11T18:29:37.708Z,98582.31
2023-01-11T18:32:04.706Z,98580.59
2023-01-11T18:34:31.644Z,98588.59
2023-01-11T18:39:57.843Z,98581.03
2023-01-11T18:42:24.690Z,98585.88
2023-01-11T18:44:51.417Z,98584.56
2023-01-11T18:47:17.929Z,98581.03
2023-01-11T18:49:44.597Z,98575.56
2023-01-11T18:52:11.313Z,98577.59
2023-01-11T18:54:38.040Z,98585.63
2023-01-11T19:04:00.890Z,98598.22
2023-01-11T19:06:29.076Z,98604.53
2023-01-11T19:08:55.695Z,98604.78
2023-01-11T19:11:25.598Z,98602.56
2023-01-11T19:13:53.417Z,98595.16
2023-01-11T19:16:19.995Z,98604.91
2023-01-11T19:18:49.909Z,98603.44
2023-01-11T19:21:16.510Z,98608.59
2023-01-11T19:23:43.142Z,98605.75
2023-01-11T19:26:09.724Z,98611.63
2023-01-11T19:28:36.902Z,98614.38
2023-01-11T19:31:11.425Z,98621.59
2023-01-11T19:37:09.696Z,98632.22
2023-01-11T19:39:36.512Z,98638.97
2023-01-11T19:42:03.821Z,98639.56
2023-01-11T19:44:33.984Z,98649.44
2023-01-11T19:47:16.653Z,98655.44
2023-01-11T19:49:43.479Z,98647.44
2023-01-11T19:52:16.706Z,98649.44
2023-01-11T19:54:45.665Z,98654.13
2023-01-11T19:57:14.345Z,98646.59
2023-01-11T19:59:41.288Z,98641.13
2023-01-11T20:02:08.196Z,98636.63
2023-01-11T20:04:34.866Z,98630.56
2023-01-11T20:07:01.471Z,98630.34
2023-01-11T20:09:28.291Z,98627.91
2023-01-11T20:11:55.642Z,98633.59
2023-01-11T20:14:22.207Z,98636.28
2023-01-11T20:16:48.786Z,98636.84
2023-01-11T20:19:15.505Z,98637.47
2023-01-11T20:21:42.137Z,98648.19
2023-01-11T20:24:11.372Z,98646.44
2023-01-11T20:26:38.116Z,98643.91
2023-01-11T20:29:06.418Z,98650.72
2023-01-11T20:31:35.530Z,98647.97
2023-01-11T20:34:06.044Z,98651.91
2023-01-11T20:36:33.166Z,98652.72
2023-01-11T20:38:59.849Z,98653.84
2023-01-11T20:41:46.048Z,98657.75
2023-01-11T20:44:16.893Z,98657.91
2023-01-11T20:46:45.735Z,98660.63
2023-01-11T20:49:14.415Z,98664.72
2023-01-11T20:51:41.011Z,98671.03
2023-01-11T20:54:07.856Z,98678.69
2023-01-11T20:56:36.933Z,98670.31
2023-01-11T20:59:03.558Z,98674.97
2023-01-11T21:01:30.992Z,98679.66
2023-01-11T21:03:59.056Z,98685.88
2023-01-11T21:06:25.611Z,98682.63
2023-01-11T21:08:56.210Z,98678.69
2023-01-11T21:11:22.772Z,98679.44
2023-01-11T21:13:51.113Z,98681.44
2023-01-11T21:16:17.709Z,98682.53
2023-01-11T21:18:44.795Z,98687.28
2023-01-11T21:21:11.966Z,98690.38
2023-01-11T21:23:38.539Z,98685.88
2023-01-11T21:26:07.416Z,98681.09
2023-01-11T21:28:33.975Z,98696.56
2023-01-11T21:31:01.714Z,98682.72
2023-01-11T21:33:29.300Z,98678.19
2023-01-11T21:35:57.608Z,98673.19
2023-01-11T21:38:24.210Z,98671.28
2023-01-11T21:40:51.184Z,98674.00
2023-01-11T21:43:18.108Z,98677.13
2023-01-11T21:45:44.797Z,98674.25
2023-01-11T21:48:11.356Z,98667.44
2023-01-11T21:50:38.181Z,98675.00
2023-01-11T21:53:04.766Z,98668.91
2023-01-11T21:55:31.351Z,98672.72
2023-01-11T21:57:57.966Z,98666.25
2023-01-11T22:00:24.695Z,98660.69
2023-01-11T22:02:51.306Z,98647.41
2023-01-11T22:05:17.884Z,98654.84
2023-01-11T22:07:44.412Z,98650.16
2023-01-11T22:10:12.420Z,98655.19
2023-01-11T22:12:38.976Z,98654.59
2023-01-11T22:15:05.725Z,98651.22
2023-01-11T22:17:32.267Z,98648.94
2023-01-11T22:19:58.791Z,98668.41
2023-01-11T22:22:25.570Z,98668.66
2023-01-11T22:24:52.088Z,98676.16
2023-01-11T22:27:18.625Z,98673.94
2023-01-11T22:29:45.417Z,98676.13
2023-01-11T22:32:11.993Z,98673.94
2023-01-11T22:34:39.485Z,98672.78
2023-01-11T22:37:06.652Z,98682.44
2023-01-11T22:39:33.292Z,98685.56
2023-01-11T22:41:59.878Z,98686.88
2023-01-11T22:44:26.441Z,98685.56
2023-01-11T22:46:53.021Z,98693.59
2023-01-11T22:49:19.775Z,98697.53
2023-01-11T22:51:46.383Z,98690.75
2023-01-11T22:54:13.270Z,98691.44
2023-01-11T22:56:39.834Z,98687.97
2023-01-11T22:59:06.693Z,98696.94
2023-01-11T23:01:39.876Z,98702.88
2023-01-11T23:04:07.134Z,98695.78
2023-01-11T23:06:37.787Z,98708.53
2023-01-11T23:09:05.163Z,98702.31
2023-01-11T23:11:50.917Z,98690.63
2023-01-11T23:14:18.513Z,98681.88
2023-01-11T23:16:45.443Z,98680.72
2023-01-11T23:19:12.517Z,98674.91
2023-01-11T23:21:39.744Z,98669.38
2023-01-11T23:24:06.419Z,98678.88
2023-01-11T23:26:33.026Z,98692.22
2023-01-11T23:28:59.571Z,98691.50
2023-01-11T23:31:26.378Z,98686.97
2023-01-11T23:33:54.495Z,98683.53
2023-01-11T23:36:21.816Z,98675.25
2023-01-11T23:38:48.833Z,98672.53
2023-01-11T23:41:34.709Z,98664.22
2023-01-11T23:44:01.780Z,98668.25
2023-01-11T23:46:46.783Z,98670.03
2023-01-11T23:49:16.358Z,98677.81
2023-01-11T23:51:42.994Z,98678.94
2023-01-11T23:54:09.665Z,98668.19
2023-01-11T23:56:36.300Z,98681.06
2023-01-11T23:59:03.382Z,98681.22
